Time;durP1;ratioP1;P1;durP2;ratioP2;P2;SDS_P1;SDS_P2;PMS_P1;PMS_P2;Temp;Humidity;BMP_temperature;BMP_pressure;BME280_temperature;BME280_humidity;BME280_pressure;Samples;Min_cycle;Max_cycle;Signal;HPM_P1;HPM_P2
2023/11/17 00:00:24;;;;;;;47.50;13.52;;;;;;;5.30;100.00;96722.22;5044852;28;20899;-80
2023/11/17 00:02:50;;;;;;;57.70;15.43;;;;;;;5.31;100.00;96744.00;5046136;28;20462;-81
2023/11/17 00:05:19;;;;;;;61.45;16.25;;;;;;;5.26;100.00;96754.41;5048650;28;20435;-81
2023/11/17 00:07:45;;;;;;;52.88;14.93;;;;;;;5.22;100.00;96759.31;5046290;28;20398;-81
2023/11/17 00:10:13;;;;;;;53.45;14.77;;;;;;;5.20;100.00;96777.09;5046188;28;20391;-81
2023/11/17 00:12:41;;;;;;;59.13;16.70;;;;;;;5.20;100.00;96787.59;5044383;28;20399;-82
2023/11/17 00:15:12;;;;;;;69.63;17.58;;;;;;;5.14;100.00;96799.03;5044109;28;20411;-82
2023/11/17 00:17:38;;;;;;;82.37;18.50;;;;;;;5.11;100.00;96809.19;5043315;28;20479;-79
2023/11/17 00:20:06;;;;;;;59.22;14.82;;;;;;;5.07;100.00;96811.47;5043174;28;20399;-82
2023/11/17 00:22:32;;;;;;;45.85;13.85;;;;;;;5.05;100.00;96837.91;5043822;28;20391;-80
2023/11/17 00:24:58;;;;;;;50.73;13.97;;;;;;;5.03;100.00;96845.25;5043358;28;20505;-82
2023/11/17 00:27:24;;;;;;;45.85;13.00;;;;;;;5.01;100.00;96857.78;5043834;28;20600;-77
2023/11/17 00:29:51;;;;;;;40.23;11.37;;;;;;;4.96;100.00;96873.38;5047955;28;20448;-83
2023/11/17 00:32:18;;;;;;;40.10;11.43;;;;;;;4.95;100.00;96879.69;5043851;28;20491;-82
2023/11/17 00:34:45;;;;;;;40.97;11.88;;;;;;;4.95;100.00;96884.91;5041514;28;20485;-82
2023/11/17 00:37:11;;;;;;;35.55;11.07;;;;;;;4.94;100.00;96903.50;5041793;28;20875;-83
2023/11/17 00:39:37;;;;;;;37.60;10.83;;;;;;;4.90;100.00;96904.97;5042032;28;20427;-81
2023/11/17 00:42:04;;;;;;;27.17;9.57;;;;;;;4.86;100.00;96920.38;5043841;28;20879;-82
2023/11/17 00:44:30;;;;;;;29.20;9.23;;;;;;;4.84;100.00;96937.34;5044178;28;20898;-82
2023/11/17 00:46:57;;;;;;;26.17;8.82;;;;;;;4.81;100.00;96946.44;5042511;28;20487;-82
2023/11/17 00:49:25;;;;;;;22.73;7.68;;;;;;;4.78;100.00;96946.91;5044133;28;20393;-82
2023/11/17 00:51:52;;;;;;;22.60;7.80;;;;;;;4.77;100.00;96958.41;5043809;28;20447;-81
2023/11/17 00:54:25;;;;;;;24.50;8.23;;;;;;;4.76;100.00;96959.44;5042951;28;20494;-82
2023/11/17 00:56:54;;;;;;;22.17;7.82;;;;;;;4.75;100.00;96964.91;5042556;28;20475;-83
2023/11/17 00:59:20;;;;;;;16.25;6.93;;;;;;;4.75;100.00;96986.69;5042276;28;20419;-82
2023/11/17 01:01:47;;;;;;;19.67;7.95;;;;;;;4.76;100.00;96998.75;5042227;28;20573;-82
2023/11/17 01:04:15;;;;;;;25.50;7.93;;;;;;;4.73;100.00;97007.09;5042989;28;20783;-82
2023/11/17 01:06:43;;;;;;;21.50;7.47;;;;;;;4.69;100.00;97019.03;5042374;28;20410;-80
2023/11/17 01:09:10;;;;;;;22.93;6.90;;;;;;;4.64;100.00;97022.34;5042285;28;20986;-82
2023/11/17 01:11:36;;;;;;;15.30;5.75;;;;;;;4.61;100.00;97035.06;5042096;28;20403;-82
2023/11/17 01:14:03;;;;;;;16.63;5.87;;;;;;;4.61;100.00;97040.31;5042544;28;20510;-81
2023/11/17 01:16:30;;;;;;;21.35;6.75;;;;;;;4.58;100.00;97046.81;5043266;28;20442;-82
2023/11/17 01:18:57;;;;;;;15.63;5.82;;;;;;;4.55;100.00;97054.31;5043369;28;20402;-82
2023/11/17 01:21:24;;;;;;;16.90;5.88;;;;;;;4.52;100.00;97059.97;5043844;28;20405;-82
2023/11/17 01:23:51;;;;;;;12.07;5.10;;;;;;;4.52;100.00;97071.25;5046386;28;20472;-82
2023/11/17 01:26:17;;;;;;;12.27;4.60;;;;;;;4.56;100.00;97076.88;5042804;28;20426;-83
2023/11/17 01:28:44;;;;;;;18.20;6.20;;;;;;;4.57;100.00;97092.38;5043497;28;20709;-82
2023/11/17 01:31:10;;;;;;;18.87;6.20;;;;;;;4.55;100.00;97093.63;5043626;28;20401;-82
2023/11/17 01:33:36;;;;;;;17.90;6.43;;;;;;;4.54;100.00;97094.63;5043562;28;20887;-83
2023/11/17 01:36:03;;;;;;;32.33;9.18;;;;;;;4.54;100.00;97102.50;5042783;28;20423;-82
2023/11/17 01:38:29;;;;;;;36.00;10.50;;;;;;;4.51;100.00;97113.44;5042794;28;20548;-82
2023/11/17 01:40:57;;;;;;;31.13;10.70;;;;;;;4.50;100.00;97125.75;5047219;28;20395;-81
2023/11/17 01:43:24;;;;;;;40.00;11.95;;;;;;;4.50;100.00;97143.28;5042373;28;20423;-80
2023/11/17 01:45:51;;;;;;;39.85;12.45;;;;;;;4.49;100.00;97144.31;5041667;28;20410;-81
2023/11/17 01:48:18;;;;;;;45.25;13.40;;;;;;;4.46;100.00;97155.22;5040533;28;20438;-80
2023/11/17 01:50:45;;;;;;;36.55;11.52;;;;;;;4.46;100.00;97152.59;5042233;28;20403;-81
2023/11/17 01:53:11;;;;;;;34.60;10.90;;;;;;;4.47;100.00;97168.09;5041156;28;20478;-82
2023/11/17 01:55:37;;;;;;;33.60;10.77;;;;;;;4.50;100.00;97161.63;5041070;28;20429;-82
2023/11/17 01:58:07;;;;;;;40.60;12.10;;;;;;;4.48;100.00;97172.31;5041936;28;20880;-82
2023/11/17 02:00:34;;;;;;;38.30;11.27;;;;;;;4.49;100.00;97170.50;5042248;28;20403;-81
2023/11/17 02:03:00;;;;;;;38.42;12.05;;;;;;;4.47;100.00;97175.16;5041414;28;20407;-82
2023/11/17 02:05:27;;;;;;;35.67;11.15;;;;;;;4.48;100.00;97182.00;5041917;28;20406;-81
2023/11/17 02:08:27;;;;;;;27.35;9.80;;;;;;;4.45;100.00;97185.84;5041858;28;20398;-80
2023/11/17 02:11:03;;;;;;;32.75;10.07;;;;;;;4.46;100.00;97199.75;5033951;28;20403;-81
2023/11/17 02:13:37;;;;;;;27.92;8.98;;;;;;;4.47;100.00;97206.59;5041411;28;20519;-81
2023/11/17 02:16:10;;;;;;;26.47;8.90;;;;;;;4.49;100.00;97210.63;5041420;28;20422;-80
2023/11/17 02:18:40;;;;;;;24.98;8.43;;;;;;;4.52;100.00;97215.41;5040387;28;20406;-80
2023/11/17 02:21:08;;;;;;;24.20;8.15;;;;;;;4.52;100.00;97222.47;5041409;28;20422;-81
2023/11/17 02:23:36;;;;;;;20.35;7.57;;;;;;;4.55;100.00;97219.44;5040839;28;20391;-81
2023/11/17 02:26:17;;;;;;;19.55;7.05;;;;;;;4.56;100.00;97223.66;5039844;28;20545;-81
2023/11/17 02:28:58;;;;;;;35.63;10.68;;;;;;;4.56;100.00;97224.47;5041657;28;20399;-79
2023/11/17 02:31:29;;;;;;;32.13;10.67;;;;;;;4.57;100.00;97233.13;5043943;28;20414;-81
2023/11/17 02:33:57;;;;;;;53.30;15.63;;;;;;;4.56;100.00;97237.56;5040840;28;20442;-82
2023/11/17 02:36:26;;;;;;;61.17;16.77;;;;;;;4.55;100.00;97240.41;5041958;28;20419;-80
2023/11/17 02:38:57;;;;;;;62.58;16.83;;;;;;;4.54;100.00;97242.22;5041602;28;20394;-81
2023/11/17 02:41:32;;;;;;;63.75;17.13;;;;;;;4.52;100.00;97248.69;5042267;28;20795;-79
2023/11/17 02:43:59;;;;;;;59.73;17.93;;;;;;;4.51;100.00;97247.88;5041564;28;20845;-80
2023/11/17 02:46:32;;;;;;;74.10;19.65;;;;;;;4.50;100.00;97248.13;5042219;28;20410;-80
2023/11/17 02:49:01;;;;;;;55.75;16.48;;;;;;;4.48;100.00;97250.16;5041092;28;21319;-80
2023/11/17 02:51:32;;;;;;;50.45;14.70;;;;;;;4.48;100.00;97253.56;5045235;28;20410;-78
2023/11/17 02:54:02;;;;;;;42.60;14.13;;;;;;;4.51;100.00;97268.84;5046033;28;20405;-82
2023/11/17 02:56:30;;;;;;;54.97;15.68;;;;;;;4.53;100.00;97273.88;5046004;28;20422;-80
2023/11/17 02:58:57;;;;;;;40.25;13.30;;;;;;;4.53;100.00;97281.75;5050417;28;20405;-82
2023/11/17 03:01:24;;;;;;;45.20;13.25;;;;;;;4.54;100.00;97288.59;5046502;28;20776;-81
2023/11/17 03:03:52;;;;;;;50.38;14.43;;;;;;;4.52;100.00;97288.81;5045443;28;20395;-82
2023/11/17 03:06:18;;;;;;;45.60;12.70;;;;;;;4.50;100.00;97298.72;5045670;28;20435;-82
2023/11/17 03:08:44;;;;;;;36.47;11.40;;;;;;;4.51;100.00;97299.53;5050075;28;20395;-81
2023/11/17 03:11:10;;;;;;;44.67;12.43;;;;;;;4.50;100.00;97309.22;5051876;28;20398;-81
2023/11/17 03:13:37;;;;;;;44.47;13.00;;;;;;;4.48;100.00;97311.22;5046300;28;20414;-81
2023/11/17 03:16:04;;;;;;;41.83;11.80;;;;;;;4.49;100.00;97304.19;5043596;28;20411;-81
2023/11/17 03:18:38;;;;;;;29.02;9.57;;;;;;;4.49;100.00;97304.19;5043488;28;20399;-81
2023/11/17 03:21:05;;;;;;;20.52;8.00;;;;;;;4.50;100.00;97318.88;5043686;28;20883;-82
2023/11/17 03:23:32;;;;;;;26.55;8.75;;;;;;;4.49;100.00;97317.28;5043582;28;20399;-81
2023/11/17 03:25:59;;;;;;;25.45;8.80;;;;;;;4.47;100.00;97314.06;5043833;28;20403;-82
2023/11/17 03:28:25;;;;;;;28.60;8.50;;;;;;;4.43;100.00;97321.56;5044466;28;20434;-81
2023/11/17 03:30:55;;;;;;;35.08;9.70;;;;;;;4.39;100.00;97324.81;5043765;28;20407;-81
2023/11/17 03:33:21;;;;;;;23.20;8.25;;;;;;;4.34;100.00;97332.50;5043806;28;20394;-82
2023/11/17 03:35:48;;;;;;;22.05;7.63;;;;;;;4.32;100.00;97324.84;5044016;28;20541;-82
2023/11/17 03:38:16;;;;;;;22.42;7.82;;;;;;;4.29;100.00;97333.94;5043861;28;20398;-83
2023/11/17 03:40:44;;;;;;;20.77;7.40;;;;;;;4.29;100.00;97343.59;5045275;28;20426;-81
2023/11/17 03:43:13;;;;;;;17.33;6.38;;;;;;;4.28;100.00;97344.66;5044635;28;20411;-81
2023/11/17 03:45:43;;;;;;;16.60;6.40;;;;;;;4.27;100.00;97348.28;5043973;28;20411;-80
2023/11/17 03:48:09;;;;;;;13.15;5.80;;;;;;;4.26;100.00;97349.28;5044602;28;20430;-81
2023/11/17 03:50:38;;;;;;;13.13;5.80;;;;;;;4.25;100.00;97351.09;5044069;28;20903;-80
2023/11/17 03:53:05;;;;;;;17.10;6.68;;;;;;;4.23;100.00;97353.13;5044723;28;20399;-80
2023/11/17 03:55:33;;;;;;;15.95;6.10;;;;;;;4.23;100.00;97354.94;5044793;28;20466;-81
2023/11/17 03:57:59;;;;;;;18.40;7.13;;;;;;;4.21;100.00;97362.22;5045724;28;20399;-81
2023/11/17 04:00:27;;;;;;;19.80;6.50;;;;;;;4.21;100.00;97365.63;5044595;28;20763;-81
2023/11/17 04:02:53;;;;;;;21.53;7.60;;;;;;;4.21;100.00;97377.94;5048721;28;20534;-81
2023/11/17 04:05:20;;;;;;;29.23;9.88;;;;;;;4.16;100.00;97375.13;5043248;28;20403;-81
2023/11/17 04:07:48;;;;;;;27.50;8.80;;;;;;;4.14;100.00;97367.47;5043770;28;20415;-81
2023/11/17 04:10:18;;;;;;;32.63;9.82;;;;;;;4.14;100.00;97375.34;5043250;28;20399;-80
2023/11/17 04:12:46;;;;;;;27.90;9.60;;;;;;;4.13;100.00;97378.19;5042922;28;20915;-81
2023/11/17 04:15:12;;;;;;;29.33;10.07;;;;;;;4.12;100.00;97382.63;5043118;28;20486;-81
2023/11/17 04:17:38;;;;;;;45.58;11.75;;;;;;;4.09;100.00;97385.66;5042958;28;20497;-82
2023/11/17 04:20:08;;;;;;;37.45;11.63;;;;;;;4.08;100.00;97378.81;5043233;28;20494;-81
2023/11/17 04:22:34;;;;;;;40.97;11.80;;;;;;;4.08;100.00;97378.81;5043431;28;20441;-81
2023/11/17 04:25:00;;;;;;;35.35;11.43;;;;;;;4.08;100.00;97380.63;5043525;28;20427;-81
2023/11/17 04:27:27;;;;;;;37.78;10.82;;;;;;;4.09;100.00;97382.22;5043519;28;20422;-82
2023/11/17 04:29:56;;;;;;;29.60;10.05;;;;;;;4.09;100.00;97390.09;5043588;28;20438;-81
2023/11/17 04:32:22;;;;;;;29.23;9.70;;;;;;;4.11;100.00;97382.84;5043690;28;20391;-81
2023/11/17 04:34:49;;;;;;;33.03;10.73;;;;;;;4.10;100.00;97379.41;5042990;28;20414;-81
2023/11/17 04:37:15;;;;;;;37.85;11.57;;;;;;;4.10;100.00;97389.09;5043699;28;20410;-81
2023/11/17 04:39:41;;;;;;;30.75;10.48;;;;;;;4.04;100.00;97388.09;5043230;28;20400;-82
2023/11/17 04:42:08;;;;;;;38.67;11.18;;;;;;;4.04;100.00;97392.53;5047033;28;20405;-81
2023/11/17 04:44:35;;;;;;;27.90;8.95;;;;;;;4.02;100.00;97384.88;5048665;28;20403;-81
2023/11/17 04:47:02;;;;;;;27.42;9.70;;;;;;;4.02;100.00;97391.94;5042899;28;20395;-81
2023/11/17 04:49:30;;;;;;;25.02;9.40;;;;;;;4.01;100.00;97401.59;5042382;28;20410;-81
2023/11/17 04:51:56;;;;;;;27.23;9.00;;;;;;;4.01;100.00;97396.38;5042715;28;20414;-81
2023/11/17 04:54:23;;;;;;;30.88;9.13;;;;;;;4.01;100.00;97396.38;5042131;28;20402;-81
2023/11/17 04:56:49;;;;;;;23.10;8.65;;;;;;;3.99;100.00;97400.19;5039215;28;20430;-82
2023/11/17 04:59:16;;;;;;;22.20;8.03;;;;;;;3.99;100.00;97408.06;5040712;28;20418;-80
2023/11/17 05:01:42;;;;;;;22.33;7.75;;;;;;;3.97;100.00;97404.88;5043326;28;20417;-81
2023/11/17 05:04:10;;;;;;;21.35;7.63;;;;;;;3.97;100.00;97400.44;5043201;28;20751;-81
2023/11/17 05:06:36;;;;;;;21.02;7.65;;;;;;;3.98;100.00;97411.72;5043236;28;20441;-82
2023/11/17 05:09:09;;;;;;;17.02;7.28;;;;;;;3.98;100.00;97401.25;5043985;28;20426;-82
2023/11/17 05:11:37;;;;;;;18.10;6.57;;;;;;;3.99;100.00;97413.28;5043962;28;20439;-80
2023/11/17 05:14:05;;;;;;;18.55;6.97;;;;;;;4.00;100.00;97420.16;5041958;28;20914;-81
2023/11/17 05:16:37;;;;;;;26.10;8.95;;;;;;;4.00;100.00;97420.16;5042488;28;20426;-81
2023/11/17 05:19:06;;;;;;;35.97;10.90;;;;;;;3.97;100.00;97417.97;5035996;28;20442;-81
2023/11/17 05:21:33;;;;;;;28.80;10.07;;;;;;;3.88;100.00;97414.78;5039551;28;20423;-81
2023/11/17 05:24:00;;;;;;;29.15;9.52;;;;;;;3.87;100.00;97413.97;5039438;28;20398;-82
2023/11/17 05:26:26;;;;;;;36.30;9.68;;;;;;;3.89;100.00;97422.44;5040834;28;20419;-82
2023/11/17 05:28:52;;;;;;;26.90;9.20;;;;;;;3.88;100.00;97418.19;5042178;28;20403;-81
2023/11/17 05:31:20;;;;;;;27.10;8.85;;;;;;;3.88;100.00;97422.63;5045832;28;20403;-81
2023/11/17 05:33:46;;;;;;;36.22;10.00;;;;;;;3.88;100.00;97426.03;5042689;28;20413;-81
2023/11/17 05:36:15;;;;;;;29.85;10.25;;;;;;;3.84;100.00;97421.41;5039709;28;20419;-81
2023/11/17 05:38:42;;;;;;;32.92;9.82;;;;;;;3.85;100.00;97436.13;5039863;28;20430;-79
2023/11/17 05:41:08;;;;;;;30.45;9.82;;;;;;;3.83;100.00;97435.53;5040775;28;20430;-81
2023/11/17 05:43:35;;;;;;;38.35;10.38;;;;;;;3.83;100.00;97431.09;5041149;28;20486;-81
2023/11/17 05:46:02;;;;;;;36.60;10.35;;;;;;;3.82;100.00;97426.06;5041133;28;20438;-81
2023/11/17 05:48:28;;;;;;;28.15;9.52;;;;;;;3.81;100.00;97434.94;5040019;28;20444;-81
2023/11/17 05:50:54;;;;;;;30.08;9.38;;;;;;;3.81;100.00;97440.19;5040874;28;20403;-81
2023/11/17 05:53:20;;;;;;;26.52;8.82;;;;;;;3.81;100.00;97445.41;5038676;28;20490;-81
2023/11/17 05:55:48;;;;;;;28.10;8.95;;;;;;;3.81;100.00;97448.03;5041465;28;20752;-81
2023/11/17 05:58:14;;;;;;;25.25;8.88;;;;;;;3.82;100.00;97447.81;5041527;28;20431;-81
2023/11/17 06:00:40;;;;;;;31.93;9.80;;;;;;;3.79;100.00;97445.59;5041120;28;20486;-84
2023/11/17 06:03:06;;;;;;;40.65;11.15;;;;;;;3.76;100.00;97453.09;5041600;28;20411;-84
2023/11/17 06:05:32;;;;;;;27.83;9.05;;;;;;;3.77;100.00;97452.06;5045364;28;20430;-83
2023/11/17 06:07:58;;;;;;;31.23;9.80;;;;;;;3.77;100.00;97450.25;5048341;28;20482;-83
2023/11/17 06:10:25;;;;;;;35.22;10.15;;;;;;;3.78;100.00;97461.53;5042222;28;20915;-82
2023/11/17 06:12:53;;;;;;;31.98;9.98;;;;;;;3.74;100.00;97452.47;5042528;28;20391;-83
2023/11/17 06:15:26;;;;;;;28.23;9.57;;;;;;;3.75;100.00;97459.31;5042622;28;20415;-81
2023/11/17 06:17:53;;;;;;;28.67;8.93;;;;;;;3.76;100.00;97453.09;5038071;28;20395;-82
2023/11/17 06:20:20;;;;;;;30.98;9.43;;;;;;;3.78;100.00;97464.13;5040201;28;20399;-82
2023/11/17 06:22:46;;;;;;;29.08;9.00;;;;;;;3.79;100.00;97465.75;5046623;28;20421;-81
2023/11/17 06:25:12;;;;;;;28.92;8.88;;;;;;;3.80;100.00;97462.13;5038983;28;20395;-80
2023/11/17 06:27:39;;;;;;;32.70;10.18;;;;;;;3.82;100.00;97470.59;5039736;28;20451;-80
2023/11/17 06:30:07;;;;;;;32.10;10.02;;;;;;;3.83;100.00;97474.81;5038279;28;20442;-85
2023/11/17 06:32:34;;;;;;;32.50;9.60;;;;;;;3.84;100.00;97471.16;5035514;28;20405;-86
2023/11/17 06:35:00;;;;;;;27.15;8.80;;;;;;;3.84;100.00;97482.44;5031678;28;20423;-84
2023/11/17 06:37:26;;;;;;;39.35;11.20;;;;;;;3.82;100.00;97474.00;5026285;28;20402;-83
2023/11/17 06:39:52;;;;;;;36.97;10.33;;;;;;;3.83;100.00;97472.19;5036799;28;20465;-85
2023/11/17 06:42:18;;;;;;;35.05;9.50;;;;;;;3.85;100.00;97484.06;5036868;28;20391;-80
2023/11/17 06:44:45;;;;;;;33.90;9.25;;;;;;;3.87;100.00;97479.41;5036653;28;20426;-82
2023/11/17 06:47:12;;;;;;;39.05;10.82;;;;;;;3.88;100.00;97483.66;5037975;28;20402;-82
2023/11/17 06:49:38;;;;;;;29.58;9.80;;;;;;;3.90;100.00;97486.06;5036197;28;20496;-80
2023/11/17 06:52:07;;;;;;;35.38;10.15;;;;;;;3.92;100.00;97481.41;5036127;28;20871;-80
2023/11/17 06:54:33;;;;;;;39.95;11.27;;;;;;;3.92;100.00;97485.84;5036335;28;20481;-82
2023/11/17 06:57:00;;;;;;;47.07;11.53;;;;;;;3.88;100.00;97482.84;5036269;28;20415;-82
2023/11/17 06:59:26;;;;;;;37.23;10.50;;;;;;;3.89;100.00;97487.88;5038068;28;20513;-81
2023/11/17 07:01:53;;;;;;;43.03;11.50;;;;;;;3.89;100.00;97494.94;5036952;28;20405;-82
2023/11/17 07:04:21;;;;;;;37.95;10.65;;;;;;;3.90;100.00;97504.41;5036719;28;20418;-82
2023/11/17 07:06:52;;;;;;;43.65;11.20;;;;;;;3.91;100.00;97497.34;5036189;28;20462;-81
2023/11/17 07:09:23;;;;;;;42.75;11.13;;;;;;;3.87;100.00;97503.00;5036096;28;20399;-80
2023/11/17 07:11:51;;;;;;;39.30;11.55;;;;;;;3.89;100.00;97505.41;5036094;28;20397;-80
2023/11/17 07:14:19;;;;;;;46.42;12.93;;;;;;;3.86;100.00;97508.44;5036484;28;20422;-81
2023/11/17 07:16:46;;;;;;;34.13;10.70;;;;;;;3.88;100.00;97509.03;5036339;28;20450;-82
2023/11/17 07:19:15;;;;;;;42.80;11.45;;;;;;;3.87;100.00;97510.84;5035948;28;20410;-81
2023/11/17 07:21:45;;;;;;;39.13;11.43;;;;;;;3.89;100.00;97511.44;5035113;28;20403;-81
2023/11/17 07:24:11;;;;;;;47.80;12.32;;;;;;;3.88;100.00;97528.16;5034764;28;20866;-82
2023/11/17 07:26:38;;;;;;;44.78;12.90;;;;;;;3.83;100.00;97520.09;5035750;28;20403;-79
2023/11/17 07:29:05;;;;;;;37.83;11.18;;;;;;;3.85;100.00;97525.94;5036678;28;20478;-81
2023/11/17 07:31:37;;;;;;;41.03;12.40;;;;;;;3.81;100.00;97526.56;5035826;28;20399;-82
2023/11/17 07:34:05;;;;;;;51.83;12.85;;;;;;;3.81;100.00;97534.44;5042243;28;20426;-81
2023/11/17 07:36:32;;;;;;;35.78;11.15;;;;;;;3.81;100.00;97537.03;5041346;28;20451;-84
2023/11/17 07:39:02;;;;;;;34.25;10.32;;;;;;;3.84;100.00;97542.66;5045421;28;20426;-81
2023/11/17 07:41:29;;;;;;;37.33;11.32;;;;;;;3.84;100.00;97541.84;5042739;28;20811;-80
2023/11/17 07:43:56;;;;;;;40.40;10.87;;;;;;;3.87;100.00;97546.69;5037890;28;20441;-84
2023/11/17 07:46:25;;;;;;;51.23;12.90;;;;;;;3.83;100.00;97545.50;5038928;28;20430;-83
2023/11/17 07:48:51;;;;;;;36.05;11.32;;;;;;;3.86;100.00;97556.38;5038060;28;20456;-83
2023/11/17 07:51:18;;;;;;;58.88;14.57;;;;;;;3.84;100.00;97557.56;5037871;28;20410;-85
2023/11/17 07:53:45;;;;;;;54.97;14.63;;;;;;;3.81;100.00;97558.78;5037236;28;20415;-82
2023/11/17 07:56:12;;;;;;;52.83;13.20;;;;;;;3.83;100.00;97559.38;5042273;28;20425;-84
2023/11/17 07:58:44;;;;;;;51.63;13.25;;;;;;;3.87;100.00;97567.66;5048223;28;20453;-84
2023/11/17 08:01:10;;;;;;;41.22;12.18;;;;;;;3.90;100.00;97569.88;5045368;28;20437;-82
2023/11/17 08:03:36;;;;;;;49.10;13.07;;;;;;;3.88;100.00;97572.69;5040163;28;20560;-83
2023/11/17 08:06:04;;;;;;;36.45;11.30;;;;;;;3.96;100.00;97571.66;5034219;28;20771;-83
2023/11/17 08:08:31;;;;;;;36.58;10.13;;;;;;;3.99;100.00;97570.44;5040253;28;20411;-82
2023/11/17 08:10:57;;;;;;;34.30;10.02;;;;;;;4.02;100.00;97578.69;5037393;28;20456;-84
2023/11/17 08:13:25;;;;;;;44.45;11.85;;;;;;;4.00;100.00;97580.72;5039599;28;20406;-83
2023/11/17 08:15:51;;;;;;;40.40;12.13;;;;;;;4.03;100.00;97582.94;5039917;28;20454;-81
2023/11/17 08:18:18;;;;;;;42.88;12.25;;;;;;;4.07;100.00;97580.69;5040568;28;20843;-83
2023/11/17 08:20:45;;;;;;;34.58;11.40;;;;;;;4.12;100.00;97586.94;5040537;28;20403;-83
2023/11/17 08:23:11;;;;;;;40.30;12.75;;;;;;;4.23;100.00;97585.50;5043140;28;20430;-82
2023/11/17 08:25:38;;;;;;;49.97;15.07;;;;;;;4.20;100.00;97586.72;5039681;28;20399;-82
2023/11/17 08:28:04;;;;;;;37.05;12.20;;;;;;;4.32;100.00;97588.69;5039575;28;20391;-81
2023/11/17 08:30:33;;;;;;;31.88;11.00;;;;;;;4.39;100.00;97587.66;5037977;28;20406;-83
2023/11/17 08:32:59;;;;;;;50.22;14.32;;;;;;;4.42;100.00;97581.22;5039185;28;20394;-82
2023/11/17 08:35:26;;;;;;;34.25;11.60;;;;;;;4.49;100.00;97587.25;5039474;28;20513;-82
2023/11/17 08:37:52;;;;;;;30.58;11.75;;;;;;;4.53;100.00;97593.66;5040378;28;20426;-84
2023/11/17 08:40:19;;;;;;;35.40;11.30;;;;;;;4.58;100.00;97593.88;5040096;28;20403;-83
2023/11/17 08:42:46;;;;;;;43.97;15.23;;;;;;;4.53;100.00;97593.66;5040127;28;20867;-84
2023/11/17 08:45:14;;;;;;;46.10;14.00;;;;;;;4.57;100.00;97600.94;5040437;28;21034;-82
2023/11/17 08:47:44;;;;;;;34.13;10.90;;;;;;;4.63;100.00;97607.16;5044076;28;20407;-80
2023/11/17 08:50:12;;;;;;;30.67;10.67;;;;;;;4.66;100.00;97602.28;5039424;28;20469;-81
2023/11/17 08:52:42;;;;;;;30.35;10.75;;;;;;;4.74;100.00;97613.53;5038862;28;20387;-84
2023/11/17 08:55:13;;;;;;;48.95;14.45;;;;;;;4.68;100.00;97609.94;5036570;28;20409;-82
2023/11/17 08:57:41;;;;;;;38.70;11.40;;;;;;;4.72;100.00;97605.91;5038141;28;20461;-82
2023/11/17 09:00:12;;;;;;;37.55;11.88;;;;;;;4.75;100.00;97610.72;5038724;28;20426;-84
2023/11/17 09:02:41;;;;;;;37.07;11.87;;;;;;;4.75;100.00;97615.16;5038570;28;20411;-80
2023/11/17 09:05:09;;;;;;;28.70;10.00;;;;;;;4.78;100.00;97607.69;5037006;28;20399;-82
2023/11/17 09:07:40;;;;;;;27.25;9.93;;;;;;;4.85;100.00;97612.91;5038463;28;20395;-81
2023/11/17 09:10:09;;;;;;;24.95;9.90;;;;;;;4.91;100.00;97617.31;5036998;28;20758;-82
2023/11/17 09:12:36;;;;;;;29.88;10.48;;;;;;;4.91;100.00;97612.06;5037898;28;20430;-80
2023/11/17 09:15:02;;;;;;;20.58;8.40;;;;;;;4.95;100.00;97616.69;5038384;28;20445;-80
2023/11/17 09:17:31;;;;;;;28.55;11.02;;;;;;;4.82;100.00;97610.69;5038421;28;20403;-81
2023/11/17 09:19:58;;;;;;;23.60;8.68;;;;;;;4.89;100.00;97621.94;5039897;28;20406;-81
2023/11/17 09:22:24;;;;;;;20.40;7.95;;;;;;;4.90;100.00;97624.38;5038520;28;20422;-81
2023/11/17 09:24:51;;;;;;;25.60;8.40;;;;;;;4.90;100.00;97626.19;5039239;28;20518;-81
2023/11/17 09:27:17;;;;;;;20.90;7.40;;;;;;;4.94;100.00;97627.41;5040445;28;20431;-81
2023/11/17 09:29:43;;;;;;;16.92;6.57;;;;;;;5.02;100.00;97629.78;5040662;28;20400;-81
2023/11/17 09:32:09;;;;;;;15.38;6.10;;;;;;;5.11;100.00;97630.34;5037890;28;20402;-81
2023/11/17 09:34:35;;;;;;;16.17;6.60;;;;;;;5.17;100.00;97630.31;5038272;28;20473;-80
2023/11/17 09:37:03;;;;;;;14.38;5.93;;;;;;;5.24;100.00;97631.06;5038119;28;20419;-79
2023/11/17 09:39:29;;;;;;;18.17;6.82;;;;;;;5.26;100.00;97629.03;5038035;28;20855;-81
2023/11/17 09:42:00;;;;;;;12.10;5.30;;;;;;;5.34;100.00;97638.47;5037087;28;20465;-80
2023/11/17 09:44:27;;;;;;;13.15;5.55;;;;;;;5.33;100.00;97635.06;5037855;28;20403;-83
2023/11/17 09:46:57;;;;;;;15.05;5.85;;;;;;;5.34;100.00;97639.28;5037752;28;20411;-82
2023/11/17 09:49:28;;;;;;;12.97;5.00;;;;;;;5.32;100.00;97636.06;5038492;28;20391;-81
2023/11/17 09:51:58;;;;;;;13.70;5.38;;;;;;;5.30;100.00;97630.22;5038334;28;20407;-81
2023/11/17 09:54:30;;;;;;;10.10;4.90;;;;;;;5.31;100.00;97631.84;5036999;28;20388;-80
2023/11/17 09:56:57;;;;;;;11.67;5.17;;;;;;;5.32;100.00;97627.41;5038040;28;20430;-79
2023/11/17 09:59:25;;;;;;;13.32;4.78;;;;;;;5.35;100.00;97626.97;5037063;28;20482;-83
2023/11/17 10:01:56;;;;;;;11.33;4.87;;;;;;;5.36;100.00;97632.00;5036588;28;20399;-82
2023/11/17 10:04:24;;;;;;;10.57;4.82;;;;;;;5.39;100.00;97638.66;5037230;28;20438;-83
2023/11/17 10:06:52;;;;;;;13.63;6.25;;;;;;;5.35;100.00;97637.44;5036901;28;20395;-81
2023/11/17 10:09:21;;;;;;;15.13;5.38;;;;;;;5.35;100.00;97640.06;5035804;28;20478;-81
2023/11/17 10:11:50;;;;;;;14.63;5.32;;;;;;;5.32;100.00;97643.16;5037036;28;20406;-81
2023/11/17 10:14:18;;;;;;;11.75;4.97;;;;;;;5.40;100.00;97635.81;5036689;28;20447;-80
2023/11/17 10:16:46;;;;;;;8.80;4.30;;;;;;;5.50;100.00;97642.41;5037383;28;20415;-80
2023/11/17 10:19:15;;;;;;;8.68;4.65;;;;;;;5.49;100.00;97641.59;5037021;28;20396;-81
2023/11/17 10:21:42;;;;;;;10.20;4.25;;;;;;;5.51;100.00;97647.44;5035977;28;20410;-82
2023/11/17 10:24:08;;;;;;;12.70;4.93;;;;;;;5.54;100.00;97651.47;5037923;28;20918;-82
2023/11/17 10:26:36;;;;;;;9.90;4.37;;;;;;;5.52;100.00;97656.13;5037496;28;20407;-82
2023/11/17 10:29:05;;;;;;;8.55;4.10;;;;;;;5.56;100.00;97655.53;5038237;28;20391;-81
2023/11/17 10:31:37;;;;;;;9.15;4.40;;;;;;;5.59;100.00;97652.44;5038394;28;20422;-81
2023/11/17 10:34:11;;;;;;;7.80;3.75;;;;;;;5.64;100.00;97651.84;5037889;28;20395;-80
2023/11/17 10:36:56;;;;;;;11.85;4.93;;;;;;;5.59;100.00;97660.31;5035650;28;20518;-80
2023/11/17 10:39:22;;;;;;;10.07;4.72;;;;;;;5.57;100.00;97659.72;5036149;28;20763;-81
2023/11/17 10:41:49;;;;;;;12.07;4.70;;;;;;;5.49;100.00;97659.97;5036363;28;20407;-82
2023/11/17 10:44:30;;;;;;;8.50;4.10;;;;;;;5.56;100.00;97655.53;5034777;28;20477;-81
2023/11/17 10:46:57;;;;;;;7.63;3.70;;;;;;;5.62;100.00;97667.78;5036654;28;20421;-81
2023/11/17 10:49:23;;;;;;;10.60;4.35;;;;;;;5.49;100.00;97656.56;5036093;28;20868;-81
2023/11/17 10:51:51;;;;;;;11.98;4.47;;;;;;;5.40;100.00;97656.03;5035966;28;20391;-81
2023/11/17 10:54:18;;;;;;;6.03;3.50;;;;;;;5.58;100.00;97653.47;5036432;28;20740;-82
2023/11/17 10:56:45;;;;;;;6.60;3.40;;;;;;;5.73;100.00;97650.53;5035666;28;20834;-80
2023/11/17 10:59:15;;;;;;;8.27;3.88;;;;;;;5.70;100.00;97654.41;5036518;28;20414;-80
2023/11/17 11:01:44;;;;;;;10.20;4.15;;;;;;;5.66;100.00;97647.94;5036079;28;20403;-81
2023/11/17 11:04:14;;;;;;;7.93;3.65;;;;;;;5.73;100.00;97646.09;5036590;28;20417;-82
2023/11/17 11:06:42;;;;;;;5.97;3.30;;;;;;;5.79;100.00;97644.41;5036752;28;20399;-82
2023/11/17 11:09:09;;;;;;;7.78;3.10;;;;;;;5.93;100.00;97642.53;5040474;28;20398;-85
2023/11/17 11:11:36;;;;;;;5.43;3.22;;;;;;;6.07;100.00;97644.03;5038312;28;20489;-80
2023/11/17 11:14:03;;;;;;;5.45;3.00;;;;;;;6.10;100.00;97644.38;5038309;28;20867;-82
2023/11/17 11:16:32;;;;;;;3.90;2.42;;;;;;;6.07;100.00;97647.47;5040155;28;20779;-82
2023/11/17 11:19:00;;;;;;;4.95;2.65;;;;;;;5.95;100.00;97643.13;5039212;28;20914;-82
2023/11/17 11:21:29;;;;;;;4.80;2.90;;;;;;;5.89;100.00;97649.22;5038549;28;20489;-82
2023/11/17 11:23:59;;;;;;;6.40;2.90;;;;;;;5.80;100.00;97648.66;5032532;28;20900;-80